Time;durP1;ratioP1;P1;durP2;ratioP2;P2;SDS_P1;SDS_P2;PMS_P1;PMS_P2;Temp;Humidity;BMP_temperature;BMP_pressure;BME280_temperature;BME280_humidity;BME280_pressure;Samples;Min_cycle;Max_cycle;Signal;HPM_P1;HPM_P2
2022/01/20 00:00:31;;;;;;;1.83;1.15;;;;;;;17.15;46.24;102215.00;4943754;29;20528;-46
2022/01/20 00:02:59;;;;;;;1.80;1.20;;;;;;;17.13;46.33;102207.09;4943990;29;20027;-45
2022/01/20 00:05:32;;;;;;;2.20;1.40;;;;;;;17.14;46.09;102203.41;4943554;29;20050;-46
2022/01/20 00:27:02;;;;;;;2.15;1.20;;;;;;;17.05;46.13;102188.03;5027740;28;20117;-51
2022/01/20 00:29:30;;;;;;;3.45;1.35;;;;;;;17.05;46.76;102189.88;5030009;28;20030;-49
2022/01/20 00:32:13;;;;;;;2.83;1.30;;;;;;;17.00;46.20;102201.00;5021715;28;20041;-47
2022/01/20 00:37:39;;;;;;;1.42;1.05;;;;;;;17.01;46.27;102196.47;4943471;29;20113;-44
2022/01/20 00:40:05;;;;;;;1.65;1.05;;;;;;;16.99;46.16;102197.47;4942406;29;20071;-45
2022/01/20 00:42:30;;;;;;;2.40;1.10;;;;;;;16.98;46.26;102198.44;4943658;29;20048;-49
2022/01/20 00:44:55;;;;;;;1.73;1.33;;;;;;;16.98;46.17;102192.19;4943474;29;20032;-48
2022/01/20 00:47:21;;;;;;;1.45;1.10;;;;;;;16.94;46.10;102185.38;4943544;29;20060;-46
2022/01/20 00:49:46;;;;;;;2.42;1.38;;;;;;;16.97;46.16;102202.09;4942942;29;20028;-50
2022/01/20 00:52:12;;;;;;;2.13;1.30;;;;;;;16.94;46.15;102202.34;4943312;29;20043;-49
2022/01/20 00:54:38;;;;;;;3.58;1.58;;;;;;;16.97;46.15;102209.31;4942826;29;20035;-48
2022/01/20 00:57:04;;;;;;;1.98;1.30;;;;;;;16.96;46.04;102194.16;4943226;29;20036;-48
2022/01/20 00:59:30;;;;;;;2.55;1.50;;;;;;;16.90;45.97;102184.75;4943157;29;20039;-50
2022/01/20 01:01:57;;;;;;;2.00;1.15;;;;;;;16.93;46.17;102206.00;4943103;29;20040;-48
2022/01/20 01:04:24;;;;;;;4.35;1.42;;;;;;;16.88;45.83;102200.16;4943060;29;20095;-50
2022/01/20 01:07:12;;;;;;;2.13;1.27;;;;;;;16.93;46.03;102211.38;4942940;29;20034;-49
2022/01/20 01:09:39;;;;;;;2.03;1.10;;;;;;;16.92;45.95;102225.81;4942347;29;20038;-50
2022/01/20 01:12:09;;;;;;;1.35;1.13;;;;;;;16.89;45.99;102219.81;5011078;28;20300;-51
2022/01/20 01:14:35;;;;;;;2.08;1.23;;;;;;;16.90;45.73;102224.19;5026066;28;20018;-47
2022/01/20 01:24:42;;;;;;;1.80;1.08;;;;;;;16.86;45.88;102226.28;5042151;28;20025;-52
2022/01/20 01:27:08;;;;;;;4.53;1.17;;;;;;;16.88;45.90;102242.28;5055443;28;20028;-48
2022/01/20 01:30:04;;;;;;;3.17;1.60;;;;;;;16.86;45.90;102239.72;5049348;28;20044;-50
2022/01/20 01:32:46;;;;;;;2.05;1.20;;;;;;;16.85;45.96;102240.69;5062879;28;20024;-46
2022/01/20 01:35:12;;;;;;;1.40;1.00;;;;;;;16.79;45.81;102233.13;5062528;28;20017;-48
2022/01/20 01:40:08;;;;;;;2.35;1.27;;;;;;;16.82;45.95;102243.66;5054190;28;20053;-45
2022/01/20 01:42:41;;;;;;;2.85;1.40;;;;;;;16.82;45.90;102240.97;5042999;28;20469;-51
2022/01/20 01:45:22;;;;;;;2.05;1.20;;;;;;;16.83;45.95;102242.66;5043761;28;20021;-51
2022/01/20 01:47:47;;;;;;;2.40;1.35;;;;;;;16.81;45.88;102230.31;5028544;28;20052;-46
2022/01/20 01:50:13;;;;;;;2.60;1.13;;;;;;;16.83;45.84;102242.66;5046005;28;20025;-48
2022/01/20 01:52:39;;;;;;;2.53;1.20;;;;;;;16.83;45.72;102241.81;5041836;28;20029;-48
2022/01/20 01:55:05;;;;;;;2.30;1.20;;;;;;;16.84;45.85;102243.50;5045536;28;20029;-46
2022/01/20 01:57:30;;;;;;;2.00;1.10;;;;;;;16.83;45.73;102241.81;5046416;28;20037;-47
2022/01/20 01:59:56;;;;;;;2.33;1.30;;;;;;;16.82;45.78;102243.66;5044714;28;20028;-47
2022/01/20 02:02:22;;;;;;;2.58;1.00;;;;;;;16.83;45.75;102244.50;5046267;28;20030;-46
2022/01/20 02:04:49;;;;;;;2.05;1.00;;;;;;;16.83;45.77;102241.81;5045743;28;20029;-48
2022/01/20 02:07:50;;;;;;;3.30;1.35;;;;;;;16.83;45.82;102245.34;5045998;28;20030;-49
2022/01/20 02:18:43;;;;;;;2.22;1.33;;;;;;;16.70;45.73;102240.06;5045833;28;20060;-50
2022/01/20 02:21:08;;;;;;;1.98;0.98;;;;;;;16.73;45.75;102244.34;5045668;28;20034;-46
2022/01/20 02:23:34;;;;;;;2.05;1.00;;;;;;;16.77;45.61;102250.34;5045477;28;20030;-48
2022/01/20 02:25:59;;;;;;;1.77;1.08;;;;;;;16.77;45.68;102243.13;5044765;28;20033;-49
2022/01/20 02:28:25;;;;;;;1.45;1.00;;;;;;;16.77;45.76;102247.66;5045667;28;20044;-46
2022/01/20 02:30:51;;;;;;;1.83;1.13;;;;;;;16.76;45.60;102244.13;5045493;28;20037;-47
2022/01/20 02:33:18;;;;;;;2.55;1.20;;;;;;;16.76;45.52;102240.59;5026718;28;20391;-45
2022/01/20 02:35:52;;;;;;;1.58;1.02;;;;;;;16.76;45.55;102232.53;5025370;28;20558;-47
2022/01/20 02:38:34;;;;;;;1.60;1.00;;;;;;;16.73;45.55;102237.16;5026660;28;20045;-46
2022/01/20 02:46:29;;;;;;;2.92;1.60;;;;;;;16.72;45.58;102245.31;5045447;28;20112;-49
2022/01/20 02:48:55;;;;;;;3.95;1.25;;;;;;;16.72;45.41;102230.06;5045162;28;20030;-51
2022/01/20 02:51:20;;;;;;;2.20;1.00;;;;;;;16.70;45.49;102240.06;5044968;28;20030;-50
2022/01/20 02:53:45;;;;;;;2.85;1.40;;;;;;;16.70;45.44;102241.91;5030889;28;20033;-48
2022/01/20 02:56:10;;;;;;;1.65;1.10;;;;;;;16.69;45.39;102242.84;5044234;28;20604;-46
2022/01/20 02:58:35;;;;;;;2.08;1.05;;;;;;;16.70;45.42;102241.91;5045177;28;20040;-49
2022/01/20 03:01:01;;;;;;;3.30;1.30;;;;;;;16.70;45.18;102234.69;5044819;28;20029;-49
2022/01/20 03:03:26;;;;;;;2.15;1.17;;;;;;;16.65;45.35;102228.84;5045119;28;20077;-48
2022/01/20 03:05:52;;;;;;;1.65;1.00;;;;;;;16.70;45.42;102231.16;5026704;28;20036;-46
2022/01/20 03:08:17;;;;;;;3.33;1.65;;;;;;;16.70;45.24;102234.69;5044871;28;20025;-48
2022/01/20 03:10:43;;;;;;;2.28;1.08;;;;;;;16.70;45.31;102247.28;5044167;28;20487;-47
2022/01/20 03:13:08;;;;;;;1.50;1.00;;;;;;;16.68;45.26;102243.84;5044898;28;20021;-46
2022/01/20 03:15:35;;;;;;;1.27;0.80;;;;;;;16.67;45.18;102239.44;5044776;28;20030;-45
2022/01/20 03:18:01;;;;;;;2.30;1.38;;;;;;;16.69;45.19;102249.09;5044743;28;20189;-48
2022/01/20 03:20:26;;;;;;;1.90;1.00;;;;;;;16.69;45.27;102256.28;5044398;28;20525;-45
2022/01/20 03:22:51;;;;;;;1.85;1.10;;;;;;;16.61;45.28;102243.47;5044128;28;20037;-47
2022/01/20 03:25:16;;;;;;;1.33;0.90;;;;;;;16.68;45.19;102243.84;5049123;28;20037;-45
2022/01/20 03:27:42;;;;;;;2.65;1.10;;;;;;;16.67;45.05;102243.00;5064518;28;20029;-48
2022/01/20 03:30:08;;;;;;;2.33;1.10;;;;;;;16.67;45.18;102255.56;5057562;28;20017;-48
2022/01/20 03:32:34;;;;;;;1.95;1.30;;;;;;;16.66;45.08;102256.53;5064292;28;20027;-49
2022/01/20 03:34:59;;;;;;;1.80;0.90;;;;;;;16.65;45.16;102261.06;5063926;28;20053;-50
2022/01/20 03:37:25;;;;;;;1.77;1.00;;;;;;;16.65;45.23;102276.28;5064497;28;20024;-47
2022/01/20 03:39:50;;;;;;;1.60;1.00;;;;;;;16.64;45.23;102274.59;5057635;28;20034;-49
2022/01/20 03:42:15;;;;;;;2.20;1.13;;;;;;;16.64;45.20;102286.19;5044402;28;20087;-49
2022/01/20 03:44:40;;;;;;;1.73;1.10;;;;;;;16.64;45.34;102299.59;5044235;28;20083;-47
2022/01/20 03:47:08;;;;;;;1.52;1.00;;;;;;;16.64;45.17;102302.28;5044151;28;20086;-47
2022/01/20 03:49:52;;;;;;;1.30;0.95;;;;;;;16.64;45.20;102298.75;5026783;28;20021;-48
2022/01/20 03:52:17;;;;;;;1.63;1.05;;;;;;;16.63;45.18;102299.75;5038433;28;20041;-48
2022/01/20 03:54:43;;;;;;;1.70;1.08;;;;;;;16.60;45.19;102295.44;5023123;28;20029;-46
2022/01/20 03:57:08;;;;;;;2.20;1.08;;;;;;;16.61;45.12;102296.31;5044071;28;20546;-45
2022/01/20 03:59:33;;;;;;;1.63;1.08;;;;;;;16.61;45.10;102289.13;5044040;28;20042;-47
2022/01/20 04:01:58;;;;;;;1.80;0.90;;;;;;;16.62;45.09;102293.53;5043797;28;20076;-52
2022/01/20 04:04:23;;;;;;;2.30;1.20;;;;;;;16.61;45.10;102307.03;5043815;28;20036;-49
2022/01/20 04:06:49;;;;;;;1.10;1.00;;;;;;;16.61;45.24;102310.63;5043558;28;20029;-48
2022/01/20 04:09:14;;;;;;;2.28;1.15;;;;;;;16.61;45.02;102315.09;5042835;28;20024;-47
2022/01/20 04:11:39;;;;;;;1.35;0.98;;;;;;;16.60;45.13;102319.63;5043726;28;20030;-50
2022/01/20 04:14:05;;;;;;;1.33;0.80;;;;;;;16.61;45.15;102320.47;5043882;28;20482;-47
2022/01/20 04:16:37;;;;;;;1.38;1.00;;;;;;;16.60;45.21;102329.50;5043927;28;20406;-48
2022/01/20 04:19:09;;;;;;;1.25;0.93;;;;;;;16.60;44.99;102330.34;5026732;28;20100;-49
2022/01/20 04:21:36;;;;;;;1.42;1.10;;;;;;;16.59;45.11;102325.97;5043572;28;20467;-48
2022/01/20 04:24:02;;;;;;;2.40;1.38;;;;;;;16.59;45.13;102325.13;5043143;28;20032;-46
2022/01/20 04:26:28;;;;;;;1.67;0.90;;;;;;;16.58;45.34;102326.09;5042874;28;20072;-50
2022/01/20 04:28:56;;;;;;;1.83;1.08;;;;;;;16.59;45.17;102330.50;5043688;28;20094;-45
2022/01/20 04:31:22;;;;;;;2.08;1.55;;;;;;;16.55;45.17;102318.28;5043669;28;20026;-50
2022/01/20 04:33:47;;;;;;;1.23;0.82;;;;;;;16.53;45.25;102318.41;5043399;28;20040;-47
2022/01/20 04:36:13;;;;;;;1.17;0.90;;;;;;;16.54;45.21;102325.47;5043282;28;20022;-46
2022/01/20 04:38:38;;;;;;;1.55;1.05;;;;;;;16.56;45.08;102345.00;5043335;28;20025;-51
2022/01/20 04:41:03;;;;;;;1.58;1.00;;;;;;;16.56;45.32;102349.50;5058288;28;20052;-51
2022/01/20 04:43:29;;;;;;;1.40;0.90;;;;;;;16.51;45.14;102339.13;5045480;28;20030;-48
2022/01/20 04:46:25;;;;;;;0.88;0.80;;;;;;;16.54;45.07;102349.66;5037345;28;20088;-47
2022/01/20 04:59:37;;;;;;;1.42;0.98;;;;;;;16.52;45.13;102351.56;5034664;28;20033;-47
2022/01/20 05:02:02;;;;;;;1.95;0.90;;;;;;;16.52;45.23;102334.63;5000354;28;20030;-47
2022/01/20 05:04:27;;;;;;;2.15;1.35;;;;;;;16.53;45.32;102344.41;5035391;28;20048;-47
2022/01/20 05:06:55;;;;;;;1.73;1.08;;;;;;;16.52;45.28;102345.34;5034377;28;20030;-49
2022/01/20 05:09:22;;;;;;;1.85;1.10;;;;;;;16.46;45.17;102342.16;5036628;28;20030;-49
2022/01/20 05:11:56;;;;;;;1.30;1.10;;;;;;;16.52;45.13;102364.16;5033887;28;20021;-45
2022/01/20 05:14:22;;;;;;;1.13;0.85;;;;;;;16.52;45.02;102373.06;5034026;28;20450;-50
2022/01/20 05:16:47;;;;;;;1.25;1.00;;;;;;;16.52;45.36;102377.56;5035052;28;20029;-50
2022/01/20 05:19:12;;;;;;;1.27;0.98;;;;;;;16.52;45.42;102381.09;5036355;28;20780;-46
2022/01/20 05:21:37;;;;;;;1.27;1.00;;;;;;;16.53;45.42;102382.00;5045373;28;20029;-46
2022/01/20 05:24:03;;;;;;;1.20;0.90;;;;;;;16.54;45.41;102394.44;5036936;28;20032;-50
2022/01/20 05:26:29;;;;;;;1.00;0.80;;;;;;;16.53;45.46;102387.38;5031067;28;20026;-49
2022/01/20 05:28:54;;;;;;;1.77;1.30;;;;;;;16.53;45.43;102395.41;5035720;28;20025;-46
2022/01/20 05:31:19;;;;;;;2.10;1.13;;;;;;;16.54;45.46;102402.50;5039867;28;20040;-51
2022/01/20 05:33:44;;;;;;;3.13;1.27;;;;;;;16.55;45.51;102412.25;5037359;28;20034;-46
2022/01/20 05:36:10;;;;;;;2.30;1.00;;;;;;;16.55;45.49;102417.63;5037072;28;20049;-49
2022/01/20 05:38:35;;;;;;;1.40;0.90;;;;;;;16.55;45.48;102414.94;5039634;28;20029;-48
2022/01/20 05:41:00;;;;;;;2.83;1.15;;;;;;;16.56;45.64;102422.00;5037425;28;20129;-49
2022/01/20 05:43:25;;;;;;;1.17;0.90;;;;;;;16.50;45.65;102416.13;5038085;28;20034;-47
2022/01/20 05:45:51;;;;;;;1.25;1.10;;;;;;;16.53;45.68;102417.75;5040562;28;20032;-49
2022/01/20 05:48:20;;;;;;;1.00;0.90;;;;;;;16.56;45.68;102433.59;5040593;28;20022;-50
2022/01/20 05:50:46;;;;;;;1.25;1.00;;;;;;;16.57;45.77;102445.22;5037942;28;20093;-45
2022/01/20 05:53:11;;;;;;;1.63;0.85;;;;;;;16.57;45.81;102448.75;5041772;28;20033;-48
2022/01/20 05:55:37;;;;;;;2.10;0.90;;;;;;;16.57;45.70;102448.75;5039100;28;20014;-47
2022/01/20 05:58:06;;;;;;;2.28;1.50;;;;;;;16.57;45.80;102455.97;5040986;28;20494;-47
2022/01/20 06:00:33;;;;;;;1.70;1.00;;;;;;;16.58;45.80;102461.22;5036497;28;20085;-46
2022/01/20 06:05:42;;;;;;;0.98;0.80;;;;;;;16.59;45.96;102456.69;5037314;28;20031;-45
2022/01/20 06:08:08;;;;;;;1.13;0.90;;;;;;;16.58;45.86;102457.69;5036524;28;20058;-46
2022/01/20 06:10:34;;;;;;;1.27;1.00;;;;;;;16.58;46.00;102447.78;5042064;28;20025;-49
2022/01/20 06:13:00;;;;;;;0.93;0.90;;;;;;;16.58;46.06;102445.09;5037123;28;20105;-47
2022/01/20 06:15:25;;;;;;;2.17;0.98;;;;;;;16.58;45.96;102441.56;5040066;28;20022;-45
2022/01/20 06:17:50;;;;;;;1.25;0.77;;;;;;;16.58;45.98;102441.56;5040458;28;20028;-47
2022/01/20 06:20:15;;;;;;;1.73;1.00;;;;;;;16.57;46.03;102448.75;5038714;28;20124;-46
2022/01/20 06:22:41;;;;;;;1.27;0.90;;;;;;;16.57;46.05;102454.13;5034924;28;20022;-47
2022/01/20 06:25:07;;;;;;;2.00;1.20;;;;;;;16.57;46.01;102458.66;5041920;28;20049;-46
2022/01/20 06:27:33;;;;;;;2.38;1.20;;;;;;;16.59;46.23;102464.75;5036851;28;20030;-46
2022/01/20 06:29:58;;;;;;;3.83;1.27;;;;;;;16.59;46.16;102467.44;5018257;28;20059;-46
2022/01/20 06:32:23;;;;;;;1.10;0.85;;;;;;;16.58;46.12;102477.31;5020181;28;20050;-50
2022/01/20 06:34:48;;;;;;;1.67;1.10;;;;;;;16.59;46.23;102480.84;5036741;28;20032;-46
2022/01/20 06:37:14;;;;;;;0.98;0.88;;;;;;;16.59;46.25;102486.22;5038907;28;20029;-46
2022/01/20 06:39:39;;;;;;;1.92;1.25;;;;;;;16.59;46.17;102491.59;5041503;28;20057;-47
2022/01/20 06:42:05;;;;;;;2.00;0.88;;;;;;;16.59;46.20;102491.59;5042241;28;20083;-46
2022/01/20 06:44:30;;;;;;;1.45;0.80;;;;;;;16.58;46.25;102488.06;5039696;28;20025;-50
2022/01/20 06:46:55;;;;;;;2.47;0.98;;;;;;;16.56;46.11;102491.81;5024310;28;20475;-48
2022/01/20 06:49:21;;;;;;;1.27;0.90;;;;;;;16.58;46.26;102497.94;5038917;28;20577;-47
2022/01/20 06:51:46;;;;;;;1.73;1.13;;;;;;;16.58;46.30;102508.69;5036558;28;20490;-50
2022/01/20 06:54:12;;;;;;;1.85;0.95;;;;;;;16.58;46.23;102517.59;5042151;28;20037;-51
2022/01/20 06:56:37;;;;;;;1.65;1.00;;;;;;;16.57;46.24;102523.94;5041366;28;20029;-46
2022/01/20 06:59:03;;;;;;;2.45;1.20;;;;;;;16.58;46.26;102531.03;5036125;28;20084;-49
2022/01/20 07:01:29;;;;;;;1.85;1.05;;;;;;;16.53;46.34;102524.28;5025149;28;20060;-48
2022/01/20 07:03:54;;;;;;;1.98;1.20;;;;;;;16.58;46.31;102543.59;5029901;28;20090;-50
2022/01/20 07:06:19;;;;;;;2.05;1.10;;;;;;;16.61;46.21;102551.41;5036119;28;20118;-47
2022/01/20 07:08:44;;;;;;;3.45;1.30;;;;;;;16.64;46.23;102548.50;5038656;28;20036;-46
2022/01/20 07:11:09;;;;;;;1.90;1.20;;;;;;;16.67;46.11;102554.50;5038411;28;20039;-45
2022/01/20 07:13:35;;;;;;;2.75;1.45;;;;;;;16.69;46.11;102546.31;5038349;28;20061;-45
2022/01/20 07:16:01;;;;;;;3.33;1.58;;;;;;;16.71;45.91;102544.41;5035035;28;20065;-47
2022/01/20 07:18:26;;;;;;;4.47;1.58;;;;;;;16.73;45.94;102551.38;5032609;28;20034;-50
2022/01/20 07:20:52;;;;;;;3.90;1.42;;;;;;;16.77;45.81;102545.78;5040809;28;20041;-46
2022/01/20 07:23:17;;;;;;;2.67;1.25;;;;;;;16.77;45.83;102553.84;5038591;28;20030;-49
2022/01/20 07:25:42;;;;;;;2.83;1.50;;;;;;;16.77;45.86;102557.38;5037709;28;20037;-48
2022/01/20 07:28:08;;;;;;;3.33;1.38;;;;;;;16.78;45.92;102553.75;5038536;28;20044;-46
2022/01/20 07:30:33;;;;;;;3.63;1.27;;;;;;;16.82;45.98;102562.41;5037849;28;20049;-47
2022/01/20 07:33:02;;;;;;;3.72;1.50;;;;;;;16.81;45.76;102566.09;5036474;28;20040;-46
2022/01/20 07:35:28;;;;;;;3.25;1.35;;;;;;;16.81;45.57;102552.66;5038353;28;20029;-45
2022/01/20 07:37:53;;;;;;;2.83;1.35;;;;;;;16.80;45.83;102556.31;5038040;28;20032;-45
2022/01/20 07:40:18;;;;;;;2.85;1.63;;;;;;;16.83;45.70;102558.78;5025101;28;20072;-46
2022/01/20 07:42:43;;;;;;;3.97;1.40;;;;;;;16.82;45.70;102557.94;5030872;28;20025;-46
2022/01/20 07:45:09;;;;;;;4.10;1.45;;;;;;;16.78;45.71;102560.94;5044306;28;20033;-46
2022/01/20 07:47:35;;;;;;;3.45;1.52;;;;;;;16.80;45.71;102567.91;5033620;28;20538;-47
2022/01/20 07:50:00;;;;;;;3.78;1.20;;;;;;;16.81;45.36;102563.41;5023947;28;20033;-48
2022/01/20 07:52:25;;;;;;;2.85;1.27;;;;;;;16.81;45.64;102577.69;5031176;28;20033;-48
2022/01/20 07:54:51;;;;;;;2.72;1.33;;;;;;;16.83;45.62;102585.66;5043299;28;20409;-44
2022/01/20 07:57:16;;;;;;;3.08;1.40;;;;;;;16.82;45.51;102592.84;5043926;28;20029;-45
2022/01/20 07:59:41;;;;;;;2.67;1.80;;;;;;;16.83;45.44;102591.03;5041855;28;20026;-46
2022/01/20 08:02:06;;;;;;;2.47;1.20;;;;;;;16.81;45.52;102593.78;5042781;28;20034;-48
2022/01/20 08:04:32;;;;;;;2.30;1.33;;;;;;;16.82;45.31;102603.59;5025984;28;20033;-45
2022/01/20 08:06:57;;;;;;;4.13;2.53;;;;;;;16.83;45.24;102599.94;5043418;28;20100;-51
2022/01/20 08:09:23;;;;;;;3.22;1.70;;;;;;;16.83;45.28;102599.06;5025427;28;20028;-48
2022/01/20 08:11:49;;;;;;;2.97;1.48;;;;;;;16.83;45.25;102599.94;5043858;28;20029;-52
2022/01/20 08:14:14;;;;;;;3.50;1.40;;;;;;;16.83;45.41;102602.63;5040910;28;20037;-47
2022/01/20 08:16:39;;;;;;;2.53;1.38;;;;;;;16.84;45.19;102603.47;5035508;28;20030;-51
2022/01/20 08:19:05;;;;;;;3.47;1.50;;;;;;;16.83;45.23;102599.06;5037401;28;20021;-46
2022/01/20 08:21:30;;;;;;;3.75;1.40;;;;;;;16.85;45.23;102605.19;5033513;28;20480;-49
2022/01/20 08:23:55;;;;;;;2.65;1.30;;;;;;;16.84;45.24;102611.53;5036178;28;20053;-50
2022/01/20 08:26:20;;;;;;;2.95;1.38;;;;;;;16.87;45.28;102605.94;5034566;28;20024;-48
2022/01/20 08:28:46;;;;;;;3.05;1.80;;;;;;;16.89;45.06;102609.34;5022566;28;20036;-46
2022/01/20 08:31:11;;;;;;;2.55;1.45;;;;;;;16.90;45.15;102613.75;5040480;28;20021;-46
2022/01/20 08:33:36;;;;;;;3.00;1.48;;;;;;;16.94;45.11;102609.88;5033021;28;20171;-45
2022/01/20 08:36:02;;;;;;;2.53;1.50;;;;;;;16.97;45.22;102615.88;5042486;28;20021;-46
2022/01/20 08:38:27;;;;;;;2.67;1.33;;;;;;;17.00;45.01;102614.78;5038559;28;20037;-49
2022/01/20 08:40:52;;;;;;;3.08;1.77;;;;;;;17.03;45.08;102602.94;5024763;28;20034;-45
2022/01/20 08:43:18;;;;;;;3.08;1.40;;;;;;;17.06;44.81;102614.31;5022809;28;20041;-47
2022/01/20 08:45:44;;;;;;;2.47;1.13;;;;;;;17.05;44.73;102606.38;5022847;28;20099;-48
2022/01/20 08:48:12;;;;;;;2.85;1.60;;;;;;;17.09;44.81;102611.41;5016530;28;20033;-47
2022/01/20 08:50:38;;;;;;;3.83;1.57;;;;;;;17.09;44.70;102618.63;5019951;28;20030;-46
2022/01/20 08:53:04;;;;;;;5.18;1.42;;;;;;;17.05;44.92;102617.13;5021658;28;20030;-45
2022/01/20 08:55:29;;;;;;;2.25;1.40;;;;;;;17.10;44.67;102629.25;5025693;28;20018;-48
2022/01/20 08:57:56;;;;;;;3.05;1.40;;;;;;;17.12;44.74;102632.69;5027473;28;20029;-46
2022/01/20 09:00:25;;;;;;;2.55;1.30;;;;;;;17.15;44.67;102642.34;5009357;28;20041;-45
2022/01/20 09:02:50;;;;;;;2.90;1.27;;;;;;;17.12;44.55;102640.75;5009712;28;20028;-46
2022/01/20 09:05:15;;;;;;;2.63;1.20;;;;;;;17.17;44.50;102646.63;5027056;28;20022;-45
2022/01/20 09:07:41;;;;;;;2.05;1.30;;;;;;;17.19;44.52;102649.19;5027162;28;20642;-45
2022/01/20 09:10:08;;;;;;;2.78;1.08;;;;;;;17.20;44.23;102638.34;5026412;28;20084;-47
2022/01/20 09:17:44;;;;;;;2.67;1.10;;;;;;;17.78;43.69;102662.66;5027456;28;20164;-46
2022/01/20 09:20:10;;;;;;;2.63;1.10;;;;;;;18.18;42.86;102660.41;5026527;28;20707;-46
2022/01/20 09:22:36;;;;;;;3.15;1.42;;;;;;;18.41;42.11;102658.56;5015033;28;20059;-45
2022/01/20 09:25:03;;;;;;;3.38;1.40;;;;;;;18.46;41.93;102658.19;5016925;28;20018;-45
2022/01/20 09:27:28;;;;;;;3.28;1.20;;;;;;;18.37;41.94;102657.09;5046921;28;20055;-46
2022/01/20 09:29:54;;;;;;;3.28;1.10;;;;;;;18.28;41.69;102665.06;5025007;28;20078;-45
2022/01/20 09:32:20;;;;;;;3.42;1.50;;;;;;;18.15;41.85;102660.66;5021044;28;20034;-46
2022/01/20 09:34:46;;;;;;;1.92;1.13;;;;;;;18.06;42.29;102660.53;5019224;28;20039;-46
2022/01/20 09:37:12;;;;;;;4.20;1.70;;;;;;;17.98;42.18;102659.28;5037156;28;20033;-45
2022/01/20 09:39:38;;;;;;;2.92;1.30;;;;;;;17.91;42.44;102657.19;5019851;28;20052;-48
2022/01/20 09:42:04;;;;;;;2.78;1.23;;;;;;;17.88;42.36;102663.69;5029123;28;20129;-50
2022/01/20 09:44:30;;;;;;;3.88;1.27;;;;;;;17.83;42.68;102654.22;5035941;28;20117;-52
2022/01/20 09:46:55;;;;;;;2.92;1.15;;;;;;;17.89;42.36;102660.00;5028864;28;20030;-50
2022/01/20 09:49:20;;;;;;;2.30;1.13;;;;;;;17.92;42.52;102661.56;5023935;28;20030;-44
2022/01/20 09:51:46;;;;;;;3.85;1.30;;;;;;;17.87;42.69;102661.94;5008649;28;20029;-47
2022/01/20 09:54:11;;;;;;;4.43;1.20;;;;;;;17.94;42.58;102673.09;5038916;28;20085;-48
2022/01/20 09:56:37;;;;;;;4.15;1.45;;;;;;;17.93;42.76;102674.94;5036395;28;20036;-46
2022/01/20 09:59:03;;;;;;;3.17;1.83;;;;;;;17.96;42.80;102668.44;5032408;28;20030;-52
2022/01/20 10:01:44;;;;;;;3.10;1.10;;;;;;;18.09;42.82;102673.72;5037692;28;20030;-48
2022/01/20 10:04:23;;;;;;;2.35;1.27;;;;;;;18.11;42.66;102690.63;5036622;28;20457;-41
2022/01/20 10:07:13;;;;;;;2.95;1.30;;;;;;;18.03;42.85;102677.75;5039723;28;20025;-47
2022/01/20 10:09:41;;;;;;;4.53;1.17;;;;;;;18.07;42.84;102692.69;5025304;28;20103;-47
2022/01/20 10:12:09;;;;;;;3.85;1.50;;;;;;;18.05;43.03;102693.78;5042233;28;20029;-46
2022/01/20 10:14:46;;;;;;;2.28;1.20;;;;;;;18.06;43.02;102692.81;5035397;28;20040;-46
2022/01/20 10:17:19;;;;;;;6.22;1.58;;;;;;;18.10;42.90;102716.69;5036743;28;20109;-45
2022/01/20 10:19:44;;;;;;;3.85;1.50;;;;;;;18.09;42.94;102708.72;5036460;28;20025;-43
2022/01/20 10:22:14;;;;;;;2.60;1.30;;;;;;;18.20;42.87;102711.44;5011568;28;20104;-46
2022/01/20 10:24:40;;;;;;;1.70;1.10;;;;;;;18.22;42.99;102718.41;5031570;28;20026;-46
2022/01/20 10:27:12;;;;;;;4.43;1.50;;;;;;;18.28;42.73;102710.84;5030360;28;20409;-44
2022/01/20 10:29:37;;;;;;;3.47;1.13;;;;;;;18.32;42.82;102715.84;5039155;28;20021;-46
2022/01/20 10:32:03;;;;;;;3.65;1.20;;;;;;;18.36;42.66;102722.72;5042568;28;20072;-45
2022/01/20 10:34:31;;;;;;;10.27;1.30;;;;;;;18.36;42.67;102725.41;5025016;28;20039;-46
2022/01/20 10:37:03;;;;;;;3.80;1.20;;;;;;;18.37;42.84;102724.41;5034877;28;20050;-45
2022/01/20 10:39:29;;;;;;;2.05;1.10;;;;;;;18.32;42.57;102731.16;5036930;28;20025;-44
2022/01/20 10:42:00;;;;;;;3.42;1.20;;;;;;;18.29;42.97;102752.94;5038185;28;20048;-43
2022/01/20 10:44:25;;;;;;;3.72;1.30;;;;;;;18.23;42.96;102738.97;5031317;28;20044;-50
2022/01/20 10:46:55;;;;;;;4.85;1.73;;;;;;;18.17;43.22;102744.81;5030364;28;20386;-47
2022/01/20 10:49:21;;;;;;;2.30;1.00;;;;;;;18.15;43.15;102748.63;5038322;28;20021;-45
2022/01/20 10:52:06;;;;;;;3.08;1.50;;;;;;;18.15;43.22;102754.00;5022673;28;20037;-45
2022/01/20 10:54:38;;;;;;;2.35;1.10;;;;;;;18.16;43.31;102744.94;5021011;28;20034;-48
2022/01/20 10:57:03;;;;;;;3.33;1.05;;;;;;;18.14;43.26;102737.00;5024728;28;20060;-47
2022/01/20 10:59:29;;;;;;;3.33;1.10;;;;;;;18.18;43.18;102745.69;5031059;28;20034;-50
2022/01/20 11:02:03;;;;;;;4.45;1.40;;;;;;;18.17;43.12;102744.81;5037596;28;20029;-47
2022/01/20 11:04:29;;;;;;;2.13;1.00;;;;;;;18.16;42.99;102753.88;5034262;28;20040;-46
2022/01/20 11:06:56;;;;;;;2.42;1.20;;;;;;;18.15;43.12;102741.41;5032331;28;20053;-46
2022/01/20 11:09:23;;;;;;;2.42;1.23;;;;;;;18.13;43.32;102742.47;5030782;28;20025;-46
2022/01/20 11:11:49;;;;;;;2.95;1.60;;;;;;;18.06;43.27;102735.88;5026448;28;20033;-46
2022/01/20 11:14:15;;;;;;;3.10;1.30;;;;;;;18.11;42.79;102742.63;5024342;28;20021;-47
2022/01/20 11:16:40;;;;;;;2.55;1.20;;;;;;;18.10;43.13;102735.53;5035800;28;20030;-44
2022/01/20 11:19:20;;;;;;;2.70;1.15;;;;;;;18.13;43.12;102732.56;5024526;28;20044;-50
2022/01/20 11:21:47;;;;;;;3.65;1.25;;;;;;;18.15;42.78;102727.09;5038449;28;20069;-46
2022/01/20 11:24:20;;;;;;;3.00;1.30;;;;;;;18.23;42.72;102721.97;5038172;28;20025;-47
2022/01/20 11:26:53;;;;;;;2.80;1.20;;;;;;;18.30;42.75;102720.50;5036624;28;20047;-48
2022/01/20 11:29:19;;;;;;;2.65;1.23;;;;;;;18.37;42.63;102728.97;5038732;28;20033;-48
2022/01/20 11:31:45;;;;;;;4.80;1.10;;;;;;;18.41;42.56;102725.03;5036995;28;20071;-47
2022/01/20 11:34:15;;;;;;;5.28;1.35;;;;;;;18.52;42.54;102725.06;5025398;28;20660;-47
2022/01/20 11:36:41;;;;;;;3.72;1.10;;;;;;;18.56;42.38;102731.03;5034099;28;20024;-49
2022/01/20 11:39:06;;;;;;;4.60;1.25;;;;;;;18.53;42.09;102707.91;5032083;28;20124;-48
2022/01/20 11:41:49;;;;;;;3.58;1.33;;;;;;;18.58;42.38;102721.88;4994253;28;20081;-46
2022/01/20 11:44:20;;;;;;;4.20;1.15;;;;;;;18.61;42.30;102726.16;5020484;28;20113;-50
2022/01/20 11:46:49;;;;;;;3.47;1.30;;;;;;;18.64;42.22;102712.41;5014347;28;20084;-48
2022/01/20 11:49:20;;;;;;;5.43;1.67;;;;;;;18.66;42.05;102705.09;5013323;28;20051;-45
2022/01/20 11:51:48;;;;;;;4.53;1.60;;;;;;;18.69;42.26;102702.13;5026643;28;20787;-48
2022/01/20 11:54:34;;;;;;;4.32;1.30;;;;;;;18.70;42.16;102690.44;5027521;28;20060;-47
2022/01/20 11:57:11;;;;;;;2.38;1.50;;;;;;;18.78;42.09;102697.91;5030614;28;20467;-48
2022/01/20 11:59:51;;;;;;;3.25;1.00;;;;;;;18.78;42.07;102703.28;5034666;28;20479;-48
2022/01/20 12:02:24;;;;;;;3.97;1.17;;;;;;;18.74;41.91;102705.38;5029976;28;20166;-47
2022/01/20 12:04:51;;;;;;;3.13;1.38;;;;;;;18.70;42.02;102703.91;5033922;28;20103;-47
2022/01/20 12:07:29;;;;;;;2.75;1.17;;;;;;;18.63;41.94;102698.09;5032250;28;20084;-46
2022/01/20 12:10:10;;;;;;;5.28;1.85;;;;;;;18.68;42.12;102705.81;5021808;28;20086;-48
2022/01/20 12:12:38;;;;;;;2.15;0.90;;;;;;;18.66;42.19;102703.25;5035226;28;20029;-48
2022/01/20 12:15:10;;;;;;;3.88;1.02;;;;;;;18.69;42.25;102681.50;5039173;28;20025;-51
2022/01/20 12:17:38;;;;;;;2.92;1.30;;;;;;;18.73;42.29;102680.25;5039933;28;20600;-48
2022/01/20 12:20:04;;;;;;;3.13;1.23;;;;;;;18.81;42.23;102689.53;5030766;28;20429;-50
2022/01/20 12:22:30;;;;;;;3.92;1.50;;;;;;;18.85;41.73;102689.16;5034907;28;20597;-49
2022/01/20 12:24:57;;;;;;;3.45;1.40;;;;;;;18.89;42.06;102689.78;5036817;28;20028;-50
2022/01/20 12:27:25;;;;;;;2.75;1.30;;;;;;;18.93;41.87;102686.69;5034505;28;20030;-50
2022/01/20 12:29:50;;;;;;;2.63;1.05;;;;;;;18.97;41.89;102688.16;5037079;28;20022;-47